首页
METAR-TAF:

METAR-TAF

机场 :

塔什干国际机场

塔什干, 乌兹别克斯坦

纬度: 41-16N, 经度: 069-16E, 海拔: 489米

当前天气观测

该预报发布于23分钟前的01:00 UTC
风速2节,风向多变
温度 9°C
湿度 81%
气压 1016 hPa
能见度10公里或以上
1500米以下无云,无积雨云

METAR: UTTT 230100Z VRB02KT CAVOK 09/06 Q1016 R08R/CLRD70 NOSIG

时间: 06:23 (01:23 UTC)

预报

该预报发布于2小时和23分钟前的23:00 UTC
预报有效从23日的 00点(UTC)到 23日的 24点(UTC)
风速12节,风向北转西北
能見度: 7000
少量云层高于6000英尺, 积雨云.
散云层高于10000英尺
短暂存在
从 23日的 03点(UTC)到 23日的 15点(UTC)
风速20节,风向多变,有时为30节阵风
能見度: 3000
散云层高于1000英尺
散云层高于5000英尺, 积雨云.
多云层高于10000英尺
雷暴, 小雨, 轻雾

TAF: UTTT 222300Z 2300/2324 33012KT 7000 FEW060CB SCT100 TEMPO 2303/2315 VRB20G30KT 3000 -TSRA BR SCT010 SCT050CB BKN100

超过4000个机场的气象观测和天气预报(METAR&TAF报告)。

可查询的气象台以黄色和红色小点在地图上表示。

将鼠标移到小点上方,可查看气象台名称。

然后点击查看天气观测和预报。

如需切换地图:点击带黑十字的绿色按钮放大地图;点击带横线的绿色按钮缩小地图;或者点击绿色箭头查看邻近地区的地图。


METAR-TAF: